createdAt,value
2018-07-25T00:00:10.234Z,9.33
2018-07-25T00:02:52.878Z,8.70
2018-07-25T00:05:35.302Z,14.60
2018-07-25T00:08:18.025Z,10.30
2018-07-25T00:11:00.990Z,12.83
2018-07-25T00:13:44.117Z,9.67
2018-07-25T00:16:26.727Z,13.53
2018-07-25T00:19:09.111Z,8.67
2018-07-25T00:21:51.810Z,10.83
2018-07-25T00:24:34.573Z,11.83
2018-07-25T00:27:17.150Z,15.43
2018-07-25T00:29:59.913Z,8.13
2018-07-25T00:32:42.507Z,11.80
2018-07-25T00:35:25.465Z,11.20
2018-07-25T00:38:07.944Z,14.90
2018-07-25T00:40:50.926Z,9.40
2018-07-25T00:43:33.835Z,9.33
2018-07-25T00:46:16.360Z,14.33
2018-07-25T00:48:59.016Z,11.03
2018-07-25T00:51:42.347Z,14.70
2018-07-25T00:54:24.659Z,12.43
2018-07-25T00:57:07.382Z,13.00
2018-07-25T00:59:50.294Z,14.77
2018-07-25T01:02:33.079Z,13.70
2018-07-25T01:05:16.148Z,7.03
2018-07-25T01:07:58.693Z,8.90
2018-07-25T01:10:42.306Z,30.10
2018-07-25T01:13:25.354Z,10.43
2018-07-25T01:16:08.391Z,7.63
2018-07-25T01:18:51.094Z,14.70
2018-07-25T01:21:33.873Z,6.00
2018-07-25T01:24:16.999Z,9.30
2018-07-25T01:27:00.071Z,9.40
2018-07-25T01:29:42.700Z,5.50
2018-07-25T01:32:25.451Z,12.40
2018-07-25T01:35:08.424Z,15.63
2018-07-25T01:37:50.399Z,6.47
2018-07-25T01:40:33.658Z,8.23
2018-07-25T01:43:16.523Z,7.23
2018-07-25T01:45:59.651Z,8.07
2018-07-25T01:48:42.757Z,10.30
2018-07-25T01:51:25.691Z,5.60
2018-07-25T01:54:08.378Z,5.40
2018-07-25T01:56:51.704Z,5.13
2018-07-25T01:59:34.918Z,7.23
2018-07-25T02:02:17.706Z,6.70
2018-07-25T02:05:00.501Z,5.57
2018-07-25T02:07:43.101Z,6.47
2018-07-25T02:10:26.414Z,8.00
2018-07-25T02:13:09.091Z,6.43
2018-07-25T02:15:51.949Z,6.27
2018-07-25T02:18:34.321Z,9.23
2018-07-25T02:21:17.099Z,10.70
2018-07-25T02:24:00.052Z,9.10
2018-07-25T02:26:42.024Z,7.30
2018-07-25T02:29:25.233Z,7.03
2018-07-25T02:32:07.922Z,10.87
2018-07-25T02:34:50.492Z,7.50
2018-07-25T02:37:33.523Z,4.90
2018-07-25T02:40:15.900Z,11.80
2018-07-25T02:42:58.850Z,13.33
2018-07-25T02:45:45.812Z,8.68
2018-07-25T02:48:28.904Z,17.73
2018-07-25T02:51:11.702Z,7.90
2018-07-25T02:53:54.405Z,15.80
2018-07-25T02:56:37.123Z,23.47
2018-07-25T02:59:19.985Z,10.87
2018-07-25T03:02:02.349Z,7.60
2018-07-25T03:04:45.615Z,7.10
2018-07-25T03:07:28.031Z,13.87
2018-07-25T03:10:10.717Z,5.87
2018-07-25T03:12:53.813Z,7.40
2018-07-25T03:15:36.523Z,6.93
2018-07-25T03:18:19.590Z,4.20
2018-07-25T03:21:02.586Z,6.13
2018-07-25T03:23:45.140Z,7.77
2018-07-25T03:26:28.250Z,11.50
2018-07-25T03:29:10.905Z,12.57
2018-07-25T03:31:53.694Z,10.13
2018-07-25T03:34:36.422Z,8.60
2018-07-25T03:37:19.605Z,6.43
2018-07-25T03:40:02.012Z,6.43
2018-07-25T03:42:44.857Z,8.37
2018-07-25T03:45:28.490Z,9.57
2018-07-25T03:48:11.330Z,13.90
2018-07-25T03:50:54.359Z,12.37
2018-07-25T03:53:36.995Z,12.30
2018-07-25T03:56:19.599Z,17.50
2018-07-25T03:59:02.212Z,12.47
2018-07-25T04:01:45.117Z,12.23
2018-07-25T04:04:27.497Z,15.23
2018-07-25T04:07:10.478Z,13.57
2018-07-25T04:09:53.266Z,25.90
2018-07-25T04:12:35.959Z,57.50
2018-07-25T04:15:18.566Z,84.00
2018-07-25T04:18:01.246Z,133.80
2018-07-25T04:20:43.894Z,216.00
2018-07-25T04:23:26.546Z,205.57
2018-07-25T04:26:09.806Z,115.57
2018-07-25T04:28:52.119Z,234.80
2018-07-25T04:31:35.002Z,148.67
2018-07-25T04:34:17.486Z,275.33
2018-07-25T04:36:59.959Z,65.93
2018-07-25T04:39:42.730Z,20.03
2018-07-25T04:42:25.817Z,35.10
2018-07-25T04:45:09.888Z,122.20
2018-07-25T04:47:52.282Z,266.33
2018-07-25T04:50:35.100Z,268.93
2018-07-25T04:53:17.771Z,226.10
2018-07-25T04:56:00.569Z,165.13
2018-07-25T04:58:43.394Z,80.80
2018-07-25T05:01:26.221Z,153.37
2018-07-25T05:04:09.179Z,157.93
2018-07-25T05:06:51.678Z,174.60
2018-07-25T05:09:35.690Z,223.40
2018-07-25T05:12:18.217Z,209.90
2018-07-25T05:15:00.896Z,257.80
2018-07-25T05:17:43.291Z,178.80
2018-07-25T05:20:26.248Z,263.23
2018-07-25T05:23:08.909Z,334.63
2018-07-25T05:25:51.367Z,260.40
2018-07-25T05:28:34.154Z,145.80
2018-07-25T05:31:17.721Z,90.10
2018-07-25T05:34:00.574Z,85.03
2018-07-25T05:36:42.979Z,128.07
2018-07-25T05:39:25.807Z,78.50
2018-07-25T05:42:09.741Z,71.30
2018-07-25T05:44:52.476Z,38.13
2018-07-25T05:47:35.964Z,42.00
2018-07-25T05:50:19.068Z,42.07
2018-07-25T05:53:01.315Z,16.63
2018-07-25T05:55:44.476Z,21.47
2018-07-25T05:58:27.367Z,16.60
2018-07-25T06:01:10.006Z,8.50
2018-07-25T06:03:52.860Z,32.30
2018-07-25T06:06:35.869Z,48.60
2018-07-25T06:09:18.632Z,21.90
2018-07-25T06:12:01.251Z,30.27
2018-07-25T06:14:43.601Z,21.50
2018-07-25T06:17:32.170Z,37.77
2018-07-25T06:20:14.548Z,33.20
2018-07-25T06:22:57.471Z,83.10
2018-07-25T06:25:40.036Z,27.43
2018-07-25T06:28:22.961Z,39.10
2018-07-25T06:31:05.908Z,44.80
2018-07-25T06:33:48.702Z,58.13
2018-07-25T06:36:31.484Z,32.73
2018-07-25T06:39:14.589Z,37.60
2018-07-25T06:41:58.080Z,26.57
2018-07-25T06:44:40.749Z,52.20
2018-07-25T06:47:23.641Z,39.97
2018-07-25T06:50:07.625Z,26.40
2018-07-25T06:52:50.299Z,46.73
2018-07-25T06:55:33.202Z,21.93
2018-07-25T06:58:16.176Z,17.50
2018-07-25T07:00:58.938Z,17.10
2018-07-25T07:03:41.775Z,20.80
2018-07-25T07:06:24.692Z,24.33
2018-07-25T07:09:08.978Z,21.13
2018-07-25T07:11:51.393Z,19.50
2018-07-25T07:14:33.949Z,22.67
2018-07-25T07:17:16.458Z,20.80
2018-07-25T07:19:59.247Z,11.00
2018-07-25T07:22:42.044Z,18.83
2018-07-25T07:25:25.748Z,22.77
2018-07-25T07:28:08.434Z,14.40
2018-07-25T07:30:51.306Z,15.43
2018-07-25T07:33:34.188Z,14.60
2018-07-25T07:36:16.720Z,17.67
2018-07-25T07:38:59.371Z,20.13
2018-07-25T07:41:42.332Z,13.40
2018-07-25T07:44:24.867Z,16.70
2018-07-25T07:47:07.750Z,7.60
2018-07-25T07:49:50.196Z,15.10
2018-07-25T07:52:32.838Z,7.30
2018-07-25T07:55:15.877Z,17.60
2018-07-25T07:57:58.145Z,17.75
2018-07-25T08:00:41.658Z,18.77
2018-07-25T08:03:24.074Z,19.50
2018-07-25T08:06:06.630Z,21.68
2018-07-25T08:08:49.495Z,9.30
2018-07-25T08:11:32.545Z,6.37
2018-07-25T08:14:15.876Z,10.10
2018-07-25T08:16:58.503Z,6.97
2018-07-25T08:19:41.072Z,9.30
2018-07-25T08:22:23.703Z,16.65
2018-07-25T08:25:06.514Z,31.20
2018-07-25T08:27:49.709Z,18.23
2018-07-25T08:30:32.331Z,11.38
2018-07-25T08:33:14.891Z,15.18
2018-07-25T08:35:57.834Z,17.02
2018-07-25T08:38:41.443Z,27.87
2018-07-25T08:41:24.674Z,14.25
2018-07-25T08:44:07.888Z,13.43
2018-07-25T08:46:50.541Z,12.15
2018-07-25T08:49:33.149Z,13.00
2018-07-25T08:52:16.334Z,20.35
2018-07-25T08:54:58.738Z,12.25
2018-07-25T08:57:41.579Z,10.50
2018-07-25T09:00:24.184Z,14.90
2018-07-25T09:03:07.119Z,7.97
2018-07-25T09:05:49.847Z,13.40
2018-07-25T09:08:32.420Z,6.95
2018-07-25T09:11:19.713Z,8.38
2018-07-25T09:14:02.525Z,6.30
2018-07-25T09:16:44.870Z,19.35
2018-07-25T09:19:28.034Z,7.70
2018-07-25T09:22:10.156Z,10.88
2018-07-25T09:24:53.221Z,8.60
2018-07-25T09:27:36.100Z,7.55
2018-07-25T09:30:18.993Z,7.97
2018-07-25T09:33:01.259Z,5.50
2018-07-25T09:35:44.515Z,21.57
2018-07-25T09:38:26.787Z,6.15
2018-07-25T09:41:09.620Z,10.35
2018-07-25T09:43:52.294Z,12.43
2018-07-25T09:46:35.845Z,14.60
2018-07-25T09:49:19.011Z,9.43
2018-07-25T09:52:01.554Z,4.33
2018-07-25T09:54:44.528Z,8.38
2018-07-25T09:57:27.244Z,10.95
2018-07-25T10:00:12.288Z,4.28
2018-07-25T10:02:54.748Z,12.65
2018-07-25T10:05:38.087Z,13.70
2018-07-25T10:08:20.484Z,7.92
2018-07-25T10:11:03.506Z,5.50
2018-07-25T10:13:46.051Z,12.07
2018-07-25T10:16:28.776Z,13.10
2018-07-25T10:19:11.448Z,8.10
2018-07-25T10:21:53.958Z,9.03
2018-07-25T10:24:37.109Z,11.05
2018-07-25T10:27:20.195Z,11.22
2018-07-25T10:30:02.592Z,12.68
2018-07-25T10:32:45.387Z,12.70
2018-07-25T10:35:28.330Z,6.53
2018-07-25T10:38:11.210Z,13.05
2018-07-25T10:40:54.010Z,9.75
2018-07-25T10:43:37.441Z,12.60
2018-07-25T10:46:20.567Z,14.87
2018-07-25T10:49:03.022Z,19.52
2018-07-25T10:51:45.997Z,21.12
2018-07-25T10:54:29.156Z,15.25
2018-07-25T10:57:12.526Z,12.85
2018-07-25T10:59:55.406Z,14.75
2018-07-25T11:02:38.723Z,10.58
2018-07-25T11:05:21.572Z,17.77
2018-07-25T11:08:04.418Z,9.80
2018-07-25T11:10:47.254Z,11.20
2018-07-25T11:13:30.311Z,8.23
2018-07-25T11:16:13.039Z,14.65
2018-07-25T11:18:55.433Z,14.83
2018-07-25T11:21:38.209Z,10.75
2018-07-25T11:24:21.114Z,11.90
2018-07-25T11:27:03.805Z,11.18
2018-07-25T11:29:46.497Z,16.37
2018-07-25T11:32:29.375Z,12.95
2018-07-25T11:35:11.912Z,16.37
2018-07-25T11:37:54.941Z,15.25
2018-07-25T11:40:38.329Z,8.83
2018-07-25T11:43:20.741Z,9.28
2018-07-25T11:46:03.722Z,11.05
2018-07-25T11:48:45.870Z,12.90
2018-07-25T11:51:28.787Z,16.12
2018-07-25T11:54:11.687Z,12.88
2018-07-25T11:56:54.485Z,11.90
2018-07-25T11:59:37.919Z,10.38
2018-07-25T12:02:20.079Z,10.35
2018-07-25T12:05:02.769Z,12.30
2018-07-25T12:07:45.663Z,13.05
2018-07-25T12:10:28.597Z,19.12
2018-07-25T12:13:11.504Z,8.75
2018-07-25T12:15:54.400Z,9.73
2018-07-25T12:18:37.260Z,10.08
2018-07-25T12:21:19.704Z,7.22
2018-07-25T12:24:02.998Z,11.30
2018-07-25T12:26:45.213Z,13.72
2018-07-25T12:29:28.501Z,8.48
2018-07-25T12:32:11.095Z,8.65
2018-07-25T12:34:54.206Z,7.25
2018-07-25T12:37:36.932Z,7.72
2018-07-25T12:40:20.002Z,12.43
2018-07-25T12:43:02.897Z,8.10
2018-07-25T12:45:46.583Z,11.65
2018-07-25T12:48:29.575Z,9.00
2018-07-25T12:51:12.342Z,8.40
2018-07-25T12:53:55.529Z,11.63
2018-07-25T12:56:37.942Z,6.40
2018-07-25T12:59:20.952Z,9.70
2018-07-25T13:02:03.927Z,7.65
2018-07-25T13:04:46.695Z,7.85
2018-07-25T13:07:29.705Z,8.43
2018-07-25T13:10:12.535Z,7.85
2018-07-25T13:12:56.486Z,7.55
2018-07-25T13:15:39.240Z,6.90
2018-07-25T13:18:22.101Z,8.33
2018-07-25T13:21:04.790Z,10.23
2018-07-25T13:23:47.490Z,6.37
2018-07-25T13:26:31.087Z,8.10
2018-07-25T13:29:14.391Z,10.45
2018-07-25T13:31:56.890Z,9.73
2018-07-25T13:34:39.347Z,14.95
2018-07-25T13:37:22.416Z,8.48
2018-07-25T13:40:06.156Z,10.23
2018-07-25T13:42:48.995Z,8.78
2018-07-25T13:45:31.789Z,4.87
2018-07-25T13:48:14.603Z,11.38
2018-07-25T13:50:57.871Z,9.25
2018-07-25T13:53:40.137Z,5.42
2018-07-25T13:56:23.179Z,7.45
2018-07-25T13:59:06.089Z,7.70
2018-07-25T14:01:48.621Z,4.28
2018-07-25T14:04:31.517Z,14.53
2018-07-25T14:07:14.289Z,6.58
2018-07-25T14:09:56.951Z,6.55
2018-07-25T14:12:40.267Z,4.95
2018-07-25T14:15:23.021Z,6.00
2018-07-25T14:18:05.432Z,5.70
2018-07-25T14:20:48.962Z,7.30
2018-07-25T14:23:31.837Z,11.25
2018-07-25T14:26:14.542Z,11.38
2018-07-25T14:28:57.263Z,8.88
2018-07-25T14:31:39.551Z,6.08
2018-07-25T14:34:22.328Z,10.90
2018-07-25T14:37:05.007Z,10.55
2018-07-25T14:39:47.726Z,5.40
2018-07-25T14:42:30.393Z,4.72
2018-07-25T14:45:13.153Z,10.75
2018-07-25T14:47:57.073Z,5.72
2018-07-25T14:50:39.930Z,9.15
2018-07-25T14:53:22.914Z,5.70
2018-07-25T14:56:05.646Z,6.58
2018-07-25T14:58:48.815Z,14.53
2018-07-25T15:01:31.243Z,5.72
2018-07-25T15:04:16.498Z,6.05
2018-07-25T15:06:59.460Z,5.33
2018-07-25T15:09:42.210Z,6.95
2018-07-25T15:12:48.150Z,4.83
2018-07-25T15:15:30.690Z,6.22
2018-07-25T15:18:14.228Z,6.00
2018-07-25T15:20:57.469Z,7.53
2018-07-25T15:23:50.754Z,5.25
2018-07-25T15:26:34.400Z,9.63
2018-07-25T15:29:17.715Z,4.45
2018-07-25T15:31:59.983Z,15.43
2018-07-25T15:34:42.982Z,8.05
2018-07-25T15:37:25.783Z,7.40
2018-07-25T15:40:09.574Z,7.92
2018-07-25T15:42:52.447Z,7.00
2018-07-25T15:45:35.338Z,11.78
2018-07-25T15:48:18.372Z,6.17
2018-07-25T15:51:01.350Z,9.30
2018-07-25T15:53:44.218Z,5.67
2018-07-25T15:56:26.520Z,10.53
2018-07-25T15:59:09.389Z,8.08
2018-07-25T16:01:51.901Z,5.55
2018-07-25T16:04:34.503Z,11.00
2018-07-25T16:07:17.540Z,7.07
2018-07-25T16:10:00.260Z,8.48
2018-07-25T16:12:43.259Z,6.07
2018-07-25T16:15:25.625Z,6.40
2018-07-25T16:18:08.520Z,9.13
2018-07-25T16:20:51.315Z,17.65
2018-07-25T16:23:34.270Z,8.73
2018-07-25T16:26:16.701Z,10.13
2018-07-25T16:28:59.588Z,11.22
2018-07-25T16:31:43.366Z,8.85
2018-07-25T16:34:26.498Z,10.75
2018-07-25T16:37:09.002Z,5.80
2018-07-25T16:39:51.786Z,12.18
2018-07-25T16:42:34.624Z,12.50
2018-07-25T16:45:17.685Z,15.45
2018-07-25T16:48:00.080Z,9.08
2018-07-25T16:50:42.687Z,8.05
2018-07-25T16:53:25.469Z,6.65
2018-07-25T16:56:08.254Z,7.95
2018-07-25T16:58:51.964Z,9.33
2018-07-25T17:01:35.187Z,15.40
2018-07-25T17:04:17.563Z,5.17
2018-07-25T17:07:00.331Z,7.55
2018-07-25T17:09:43.397Z,6.78
2018-07-25T17:12:26.533Z,10.60
2018-07-25T17:15:10.773Z,9.05
2018-07-25T17:17:53.351Z,5.62
2018-07-25T17:20:37.002Z,4.80
2018-07-25T17:23:20.045Z,4.05
2018-07-25T17:26:03.023Z,12.70
2018-07-25T17:28:45.457Z,8.58
2018-07-25T17:31:28.417Z,16.52
2018-07-25T17:34:11.275Z,9.45
2018-07-25T17:36:54.480Z,6.10
2018-07-25T17:39:37.004Z,9.78
2018-07-25T17:42:20.152Z,7.67
2018-07-25T17:45:02.902Z,6.78
2018-07-25T17:47:46.466Z,7.10
2018-07-25T17:50:28.870Z,25.48
2018-07-25T17:53:11.852Z,9.03
2018-07-25T17:55:54.562Z,11.40
2018-07-25T17:58:36.971Z,11.90
2018-07-25T18:01:19.478Z,15.85
2018-07-25T18:04:02.879Z,8.80
2018-07-25T18:06:45.178Z,15.58
2018-07-25T18:09:28.030Z,14.93
2018-07-25T18:12:11.134Z,22.62
2018-07-25T18:14:53.351Z,21.35
2018-07-25T18:17:36.137Z,12.90
2018-07-25T18:20:19.127Z,17.15
2018-07-25T18:23:01.978Z,18.95
2018-07-25T18:25:45.217Z,10.97
2018-07-25T18:28:28.454Z,7.20
2018-07-25T18:31:11.441Z,18.70
2018-07-25T18:33:54.592Z,8.93
2018-07-25T18:36:37.742Z,20.37
2018-07-25T18:39:20.749Z,7.45
2018-07-25T18:42:03.219Z,14.70
2018-07-25T18:44:46.010Z,10.47
2018-07-25T18:47:29.135Z,7.90
2018-07-25T18:50:12.346Z,13.73
2018-07-25T18:52:55.489Z,15.30
2018-07-25T18:55:38.217Z,24.40
2018-07-25T18:58:21.226Z,8.57
2018-07-25T19:01:03.843Z,26.57
2018-07-25T19:03:46.343Z,16.00
2018-07-25T19:06:29.270Z,15.20
2018-07-25T19:09:15.543Z,39.63
2018-07-25T19:11:58.134Z,30.20
2018-07-25T19:14:47.309Z,24.10
2018-07-25T19:17:30.325Z,11.40
2018-07-25T19:20:13.012Z,22.83
2018-07-25T19:22:55.912Z,20.97
2018-07-25T19:25:38.620Z,52.83
2018-07-25T19:28:21.597Z,12.97
2018-07-25T19:31:04.472Z,272.33
2018-07-25T19:33:47.497Z,18.60
2018-07-25T19:36:30.641Z,6.93
2018-07-25T19:39:12.826Z,9.00
2018-07-25T19:41:55.808Z,52.27
2018-07-25T19:44:38.524Z,38.67
2018-07-25T19:47:21.043Z,21.00
2018-07-25T19:50:03.490Z,21.13
2018-07-25T19:52:46.218Z,16.30
2018-07-25T19:55:29.287Z,7.77
2018-07-25T19:58:11.789Z,11.67
2018-07-25T20:00:55.089Z,20.77
2018-07-25T20:03:37.690Z,11.40
2018-07-25T20:06:20.170Z,10.33
2018-07-25T20:09:03.045Z,28.27
2018-07-25T20:11:45.736Z,33.30
2018-07-25T20:14:33.154Z,26.23
2018-07-25T20:17:16.343Z,11.23
2018-07-25T20:19:59.104Z,7.87
2018-07-25T20:22:42.286Z,25.73
2018-07-25T20:25:25.373Z,24.53
2018-07-25T20:28:08.069Z,9.10
2018-07-25T20:30:50.760Z,16.40
2018-07-25T20:33:33.661Z,8.30
2018-07-25T20:36:17.123Z,16.10
2018-07-25T20:38:59.858Z,7.57
2018-07-25T20:41:43.202Z,3.67
2018-07-25T20:44:26.238Z,7.60
2018-07-25T20:47:09.050Z,5.07
2018-07-25T20:49:52.103Z,9.80
2018-07-25T20:52:34.824Z,7.40
2018-07-25T20:55:17.367Z,3.70
2018-07-25T20:58:00.174Z,6.00
2018-07-25T21:14:16.560Z,26.33
2018-07-25T21:16:59.379Z,12.03
2018-07-25T21:19:42.648Z,6.40
2018-07-25T21:22:25.524Z,8.80
2018-07-25T21:25:09.128Z,8.00
2018-07-25T21:27:52.707Z,3.63
2018-07-25T21:30:35.150Z,4.20
2018-07-25T21:33:19.506Z,7.03
2018-07-25T21:36:02.907Z,9.67
2018-07-25T21:38:46.283Z,6.00
2018-07-25T21:41:29.334Z,12.67
2018-07-25T21:44:11.829Z,5.57
2018-07-25T21:46:54.684Z,11.33
2018-07-25T21:49:37.560Z,9.33
2018-07-25T21:52:20.608Z,6.40
2018-07-25T21:55:03.006Z,5.13
2018-07-25T21:57:45.520Z,6.97
2018-07-25T22:00:28.631Z,13.00
2018-07-25T22:03:11.523Z,9.20
2018-07-25T22:05:54.454Z,10.53
2018-07-25T22:08:36.973Z,8.30
2018-07-25T22:11:20.257Z,3.57
2018-07-25T22:14:03.640Z,6.60
2018-07-25T22:16:46.627Z,5.80
2018-07-25T22:19:29.370Z,4.43
2018-07-25T22:22:11.791Z,5.00
2018-07-25T22:24:54.815Z,11.27
2018-07-25T22:27:37.762Z,6.70
2018-07-25T22:30:19.995Z,13.63
2018-07-25T22:33:02.682Z,8.77
2018-07-25T22:35:46.052Z,7.90
2018-07-25T22:38:34.748Z,4.33
2018-07-25T22:41:17.115Z,5.40
2018-07-25T22:43:59.886Z,10.83
2018-07-25T22:46:42.830Z,3.33
2018-07-25T22:49:25.308Z,3.70
2018-07-25T22:52:08.572Z,6.40
2018-07-25T22:54:51.008Z,12.07
2018-07-25T22:57:33.972Z,19.60
2018-07-25T23:00:16.328Z,11.80
2018-07-25T23:02:58.939Z,12.20
2018-07-25T23:05:42.139Z,12.30
2018-07-25T23:08:24.853Z,11.13
2018-07-25T23:11:07.737Z,8.23
2018-07-25T23:13:50.474Z,14.60
2018-07-25T23:16:33.024Z,18.90
2018-07-25T23:19:15.924Z,7.60
2018-07-25T23:21:58.723Z,5.13
2018-07-25T23:24:41.399Z,13.17
2018-07-25T23:27:24.214Z,8.50
2018-07-25T23:30:06.767Z,6.13
2018-07-25T23:32:50.155Z,9.80
2018-07-25T23:35:33.257Z,7.40
2018-07-25T23:38:15.881Z,5.07
2018-07-25T23:40:58.962Z,11.43
2018-07-25T23:43:41.789Z,9.97
2018-07-25T23:46:24.315Z,8.60
2018-07-25T23:49:06.907Z,13.80
2018-07-25T23:51:49.705Z,3.33
2018-07-25T23:54:32.446Z,3.30
2018-07-25T23:57:15.048Z,5.50
